Aérodrome :
LOGIN :

S'inscrire | Disclaimer

   EN    FR    IT 

 










Légende :    VFR   VFR Marginal   IFR   IFR Intensif   IFR Très Intensif
Visi : 
Plafond : 
>= 8 km
>= 3000ft
5 à 8 km
1000 à 3000 ft
1500m à 5 km
500 à 1000 ft
800 à 1500m
200 à 500 ft
< 800m
< 200 ft
Symboles :   Orages  Brouillard  Fortes neiges  Fortes précipitations  Vent > 20 kt
SIGMETs :   Divers  Orages  Givrage  Turbulence  Onde Orograph.  Cendres Volcan.







- Altitude de l'aérodrome : 778 ft
- Code IATA : BRQ


LKTB - Brno-Turany

DERNIER METAR :
  • 151200Z 21007KT CAVOK 04/01 Q0999 NOSIG

METARs EXPIRÉS :
  • 151130Z 20008KT CAVOK 04/01 Q0998 NOSIG
  • 151100Z 22006KT 9999 SCT013 03/01 Q0998 NOSIG
  • 151030Z 22005KT 9999 SCT014 03/01 Q0998 NOSIG
  • 151000Z 23007KT 9999 BKN013 03/01 Q0998 NOSIG
  • 150930Z 23008KT 7000 FEW034 02/02 Q0998 NOSIG

TAF TAF LKTB
Valide du 15 à 12h jusqu'au 16 à 18h UTC


151100Z 1512/1618 23007KT 9999 BKN035
TEMPO 1512/1513 5000 -RASN BR BKN013
BECMG 1516/1518 VRB02KT
TEMPO 1603/1608 3000 BR BKN005
BECMG 1610/1612 29006KT
Pas de NOTAMs connus pour ce terrain.



MET'MAP, la Météo Aéronautique d'un coup d'oeil ! - Copyright ORBIFLY Décembre 2007 - Disclaimer

ORBIFLY MET'MAP TEAM :

Programmation & Développement : Alexandra Zaïnal
Conception & Développement : Baudouin d'Aumeries
Co-Programmation & Développement : Marc-Olivier Méhu
Soutien technique & logistique : Manuel Goepfert

Contact : metmap@orbifly.com




SOURCES & CREDITS :

   NOAA